sensor_id;sensor_type;location;lat;lon;timestamp;P1;durP1;ratioP1;P2;durP2;ratioP2
61907;SDS011;47864;52.526;19.672;2023-06-22T00:00:17;25.02;;;17.48;;
61907;SDS011;47864;52.526;19.672;2023-06-22T00:02:18;22.90;;;18.75;;
61907;SDS011;47864;52.526;19.672;2023-06-22T00:04:20;21.33;;;17.27;;
61907;SDS011;47864;52.526;19.672;2023-06-22T00:06:22;20.73;;;17.80;;
61907;SDS011;47864;52.526;19.672;2023-06-22T00:08:23;23.08;;;16.98;;
61907;SDS011;47864;52.526;19.672;2023-06-22T00:10:25;22.25;;;18.45;;
61907;SDS011;47864;52.526;19.672;2023-06-22T00:12:27;21.85;;;17.63;;
61907;SDS011;47864;52.526;19.672;2023-06-22T00:14:28;22.77;;;17.75;;
61907;SDS011;47864;52.526;19.672;2023-06-22T00:16:31;21.92;;;17.38;;
61907;SDS011;47864;52.526;19.672;2023-06-22T00:18:33;23.83;;;17.42;;
61907;SDS011;47864;52.526;19.672;2023-06-22T00:20:35;20.23;;;16.63;;
61907;SDS011;47864;52.526;19.672;2023-06-22T00:22:36;20.25;;;16.35;;
61907;SDS011;47864;52.526;19.672;2023-06-22T00:24:38;20.80;;;17.95;;
61907;SDS011;47864;52.526;19.672;2023-06-22T00:26:39;20.05;;;16.58;;
61907;SDS011;47864;52.526;19.672;2023-06-22T00:28:41;21.58;;;17.08;;
61907;SDS011;47864;52.526;19.672;2023-06-22T00:30:43;23.55;;;16.67;;
61907;SDS011;47864;52.526;19.672;2023-06-22T00:32:45;21.33;;;17.27;;
61907;SDS011;47864;52.526;19.672;2023-06-22T00:34:46;21.98;;;17.13;;
61907;SDS011;47864;52.526;19.672;2023-06-22T00:36:48;21.77;;;17.25;;
61907;SDS011;47864;52.526;19.672;2023-06-22T00:38:50;21.95;;;16.65;;
61907;SDS011;47864;52.526;19.672;2023-06-22T00:40:51;19.73;;;16.13;;
61907;SDS011;47864;52.526;19.672;2023-06-22T00:42:53;19.85;;;17.08;;
61907;SDS011;47864;52.526;19.672;2023-06-22T00:44:55;18.30;;;15.98;;
61907;SDS011;47864;52.526;19.672;2023-06-22T00:46:56;20.25;;;16.67;;
61907;SDS011;47864;52.526;19.672;2023-06-22T00:48:59;19.25;;;16.88;;
61907;SDS011;47864;52.526;19.672;2023-06-22T00:51:00;19.45;;;16.55;;
61907;SDS011;47864;52.526;19.672;2023-06-22T00:53:05;22.63;;;17.63;;
61907;SDS011;47864;52.526;19.672;2023-06-22T00:55:08;24.20;;;16.67;;
61907;SDS011;47864;52.526;19.672;2023-06-22T00:57:11;22.45;;;17.77;;
61907;SDS011;47864;52.526;19.672;2023-06-22T01:01:15;20.85;;;17.20;;
61907;SDS011;47864;52.526;19.672;2023-06-22T01:03:17;22.25;;;17.92;;
61907;SDS011;47864;52.526;19.672;2023-06-22T01:05:19;22.85;;;18.00;;
61907;SDS011;47864;52.526;19.672;2023-06-22T01:07:32;22.85;;;18.17;;
61907;SDS011;47864;52.526;19.672;2023-06-22T01:09:45;22.73;;;17.85;;
61907;SDS011;47864;52.526;19.672;2023-06-22T01:12:04;23.38;;;18.20;;
61907;SDS011;47864;52.526;19.672;2023-06-22T01:14:18;21.90;;;18.05;;
61907;SDS011;47864;52.526;19.672;2023-06-22T01:16:31;24.55;;;18.48;;
61907;SDS011;47864;52.526;19.672;2023-06-22T01:18:36;21.98;;;18.10;;
61907;SDS011;47864;52.526;19.672;2023-06-22T01:20:42;22.45;;;18.00;;
61907;SDS011;47864;52.526;19.672;2023-06-22T01:30:05;23.55;;;18.20;;
61907;SDS011;47864;52.526;19.672;2023-06-22T01:32:08;23.40;;;17.75;;
61907;SDS011;47864;52.526;19.672;2023-06-22T01:34:11;24.23;;;17.10;;
61907;SDS011;47864;52.526;19.672;2023-06-22T01:36:14;22.58;;;17.95;;
61907;SDS011;47864;52.526;19.672;2023-06-22T01:40:19;23.70;;;17.45;;
61907;SDS011;47864;52.526;19.672;2023-06-22T01:42:23;21.05;;;17.10;;
61907;SDS011;47864;52.526;19.672;2023-06-22T01:44:25;20.83;;;18.40;;
61907;SDS011;47864;52.526;19.672;2023-06-22T01:46:28;23.20;;;17.70;;
61907;SDS011;47864;52.526;19.672;2023-06-22T01:48:30;24.42;;;17.92;;
61907;SDS011;47864;52.526;19.672;2023-06-22T01:50:32;22.52;;;16.65;;
61907;SDS011;47864;52.526;19.672;2023-06-22T01:52:34;23.20;;;18.00;;
61907;SDS011;47864;52.526;19.672;2023-06-22T01:54:36;23.77;;;17.88;;
61907;SDS011;47864;52.526;19.672;2023-06-22T01:56:38;25.43;;;17.53;;
61907;SDS011;47864;52.526;19.672;2023-06-22T01:58:42;24.67;;;17.52;;
61907;SDS011;47864;52.526;19.672;2023-06-22T02:00:53;22.13;;;17.75;;
61907;SDS011;47864;52.526;19.672;2023-06-22T02:03:07;21.13;;;17.55;;
61907;SDS011;47864;52.526;19.672;2023-06-22T02:05:13;23.88;;;17.30;;
61907;SDS011;47864;52.526;19.672;2023-06-22T02:07:18;23.17;;;17.85;;
61907;SDS011;47864;52.526;19.672;2023-06-22T02:09:23;22.17;;;17.85;;
61907;SDS011;47864;52.526;19.672;2023-06-22T02:11:30;21.50;;;17.05;;
61907;SDS011;47864;52.526;19.672;2023-06-22T02:13:32;25.67;;;18.20;;
61907;SDS011;47864;52.526;19.672;2023-06-22T02:15:35;23.33;;;18.13;;
61907;SDS011;47864;52.526;19.672;2023-06-22T02:17:36;24.30;;;17.50;;
61907;SDS011;47864;52.526;19.672;2023-06-22T02:19:38;21.88;;;17.27;;
61907;SDS011;47864;52.526;19.672;2023-06-22T02:21:42;25.20;;;17.58;;
61907;SDS011;47864;52.526;19.672;2023-06-22T02:23:43;24.50;;;17.85;;
61907;SDS011;47864;52.526;19.672;2023-06-22T02:25:45;21.30;;;16.52;;
61907;SDS011;47864;52.526;19.672;2023-06-22T02:27:46;21.55;;;17.67;;
61907;SDS011;47864;52.526;19.672;2023-06-22T02:29:48;22.20;;;17.13;;
61907;SDS011;47864;52.526;19.672;2023-06-22T02:31:50;22.75;;;17.60;;
61907;SDS011;47864;52.526;19.672;2023-06-22T02:33:51;19.95;;;17.15;;
61907;SDS011;47864;52.526;19.672;2023-06-22T02:35:53;22.65;;;17.90;;
61907;SDS011;47864;52.526;19.672;2023-06-22T02:37:54;21.77;;;17.85;;
61907;SDS011;47864;52.526;19.672;2023-06-22T02:39:56;24.42;;;17.88;;
61907;SDS011;47864;52.526;19.672;2023-06-22T02:41:57;21.05;;;17.35;;
61907;SDS011;47864;52.526;19.672;2023-06-22T02:43:59;22.08;;;17.02;;
61907;SDS011;47864;52.526;19.672;2023-06-22T02:46:01;26.95;;;19.10;;
61907;SDS011;47864;52.526;19.672;2023-06-22T02:48:02;21.95;;;17.85;;
61907;SDS011;47864;52.526;19.672;2023-06-22T02:50:04;21.17;;;18.75;;
61907;SDS011;47864;52.526;19.672;2023-06-22T02:52:06;25.35;;;17.98;;
61907;SDS011;47864;52.526;19.672;2023-06-22T02:54:08;21.95;;;17.58;;
61907;SDS011;47864;52.526;19.672;2023-06-22T02:56:09;21.10;;;16.90;;
61907;SDS011;47864;52.526;19.672;2023-06-22T02:58:11;24.42;;;17.88;;
61907;SDS011;47864;52.526;19.672;2023-06-22T03:00:13;23.70;;;18.40;;
61907;SDS011;47864;52.526;19.672;2023-06-22T03:02:15;22.92;;;17.08;;
61907;SDS011;47864;52.526;19.672;2023-06-22T03:04:17;23.95;;;17.27;;
61907;SDS011;47864;52.526;19.672;2023-06-22T03:06:20;22.52;;;16.70;;
61907;SDS011;47864;52.526;19.672;2023-06-22T03:08:22;23.25;;;16.90;;
61907;SDS011;47864;52.526;19.672;2023-06-22T03:10:23;23.48;;;18.20;;
61907;SDS011;47864;52.526;19.672;2023-06-22T03:12:25;23.42;;;17.77;;
61907;SDS011;47864;52.526;19.672;2023-06-22T03:14:27;22.05;;;16.83;;
61907;SDS011;47864;52.526;19.672;2023-06-22T03:16:28;26.73;;;16.98;;
61907;SDS011;47864;52.526;19.672;2023-06-22T03:18:30;21.05;;;17.00;;
61907;SDS011;47864;52.526;19.672;2023-06-22T03:20:31;23.42;;;17.10;;
61907;SDS011;47864;52.526;19.672;2023-06-22T03:22:33;27.25;;;17.88;;
61907;SDS011;47864;52.526;19.672;2023-06-22T03:24:34;24.55;;;17.40;;
61907;SDS011;47864;52.526;19.672;2023-06-22T03:26:36;23.23;;;18.75;;
61907;SDS011;47864;52.526;19.672;2023-06-22T03:28:37;23.83;;;17.83;;
61907;SDS011;47864;52.526;19.672;2023-06-22T03:30:39;23.67;;;18.60;;
61907;SDS011;47864;52.526;19.672;2023-06-22T03:32:41;23.58;;;17.45;;
61907;SDS011;47864;52.526;19.672;2023-06-22T03:34:42;27.13;;;17.77;;
61907;SDS011;47864;52.526;19.672;2023-06-22T03:36:44;26.85;;;18.90;;
61907;SDS011;47864;52.526;19.672;2023-06-22T03:38:46;25.30;;;18.05;;
61907;SDS011;47864;52.526;19.672;2023-06-22T03:40:48;23.50;;;17.13;;
61907;SDS011;47864;52.526;19.672;2023-06-22T03:42:50;23.48;;;18.00;;
61907;SDS011;47864;52.526;19.672;2023-06-22T03:44:52;23.20;;;18.00;;
61907;SDS011;47864;52.526;19.672;2023-06-22T03:46:53;24.48;;;17.25;;
61907;SDS011;47864;52.526;19.672;2023-06-22T03:48:55;21.02;;;16.92;;
61907;SDS011;47864;52.526;19.672;2023-06-22T03:50:58;23.58;;;16.42;;
61907;SDS011;47864;52.526;19.672;2023-06-22T03:55:02;22.88;;;16.50;;
61907;SDS011;47864;52.526;19.672;2023-06-22T03:57:04;20.63;;;15.88;;
61907;SDS011;47864;52.526;19.672;2023-06-22T03:59:05;22.17;;;15.82;;
61907;SDS011;47864;52.526;19.672;2023-06-22T04:01:07;21.95;;;16.13;;
61907;SDS011;47864;52.526;19.672;2023-06-22T04:03:08;25.05;;;15.93;;
61907;SDS011;47864;52.526;19.672;2023-06-22T04:05:10;22.83;;;15.07;;
61907;SDS011;47864;52.526;19.672;2023-06-22T04:07:12;22.02;;;15.15;;
61907;SDS011;47864;52.526;19.672;2023-06-22T04:09:13;21.63;;;15.18;;
61907;SDS011;47864;52.526;19.672;2023-06-22T04:11:15;20.77;;;14.60;;
61907;SDS011;47864;52.526;19.672;2023-06-22T04:13:17;21.17;;;14.13;;
61907;SDS011;47864;52.526;19.672;2023-06-22T04:15:18;19.90;;;13.32;;
61907;SDS011;47864;52.526;19.672;2023-06-22T04:17:19;18.50;;;14.20;;
61907;SDS011;47864;52.526;19.672;2023-06-22T04:19:21;18.08;;;13.18;;
61907;SDS011;47864;52.526;19.672;2023-06-22T04:21:23;19.00;;;13.70;;
61907;SDS011;47864;52.526;19.672;2023-06-22T04:23:24;20.48;;;13.23;;
61907;SDS011;47864;52.526;19.672;2023-06-22T04:25:26;15.52;;;12.20;;
61907;SDS011;47864;52.526;19.672;2023-06-22T04:27:27;21.25;;;12.35;;
61907;SDS011;47864;52.526;19.672;2023-06-22T04:29:29;17.08;;;11.77;;
61907;SDS011;47864;52.526;19.672;2023-06-22T04:31:31;16.38;;;11.75;;
61907;SDS011;47864;52.526;19.672;2023-06-22T04:33:33;17.75;;;11.98;;
61907;SDS011;47864;52.526;19.672;2023-06-22T04:35:35;17.05;;;10.45;;
61907;SDS011;47864;52.526;19.672;2023-06-22T04:37:37;16.35;;;12.02;;
61907;SDS011;47864;52.526;19.672;2023-06-22T04:39:38;15.50;;;11.27;;
61907;SDS011;47864;52.526;19.672;2023-06-22T04:41:40;15.93;;;10.63;;
61907;SDS011;47864;52.526;19.672;2023-06-22T04:43:42;16.17;;;10.30;;
61907;SDS011;47864;52.526;19.672;2023-06-22T04:45:44;14.43;;;10.15;;
61907;SDS011;47864;52.526;19.672;2023-06-22T04:47:45;14.65;;;9.80;;
61907;SDS011;47864;52.526;19.672;2023-06-22T04:51:52;12.10;;;9.27;;
61907;SDS011;47864;52.526;19.672;2023-06-22T04:56:03;13.50;;;9.90;;
61907;SDS011;47864;52.526;19.672;2023-06-22T04:58:05;16.73;;;9.32;;
61907;SDS011;47864;52.526;19.672;2023-06-22T05:00:07;14.63;;;10.10;;
61907;SDS011;47864;52.526;19.672;2023-06-22T05:02:09;20.30;;;10.15;;
61907;SDS011;47864;52.526;19.672;2023-06-22T05:04:11;14.43;;;8.82;;
61907;SDS011;47864;52.526;19.672;2023-06-22T05:06:12;11.40;;;9.07;;
61907;SDS011;47864;52.526;19.672;2023-06-22T05:08:14;12.90;;;8.90;;
61907;SDS011;47864;52.526;19.672;2023-06-22T05:10:16;13.88;;;8.48;;
61907;SDS011;47864;52.526;19.672;2023-06-22T05:12:17;12.00;;;8.48;;
61907;SDS011;47864;52.526;19.672;2023-06-22T05:14:19;11.68;;;8.23;;
61907;SDS011;47864;52.526;19.672;2023-06-22T05:16:21;15.18;;;8.80;;
61907;SDS011;47864;52.526;19.672;2023-06-22T05:18:23;12.80;;;8.52;;
61907;SDS011;47864;52.526;19.672;2023-06-22T05:20:25;13.07;;;9.02;;
61907;SDS011;47864;52.526;19.672;2023-06-22T05:22:27;13.73;;;7.97;;
61907;SDS011;47864;52.526;19.672;2023-06-22T05:24:28;12.75;;;8.05;;
61907;SDS011;47864;52.526;19.672;2023-06-22T05:26:30;12.80;;;8.93;;
61907;SDS011;47864;52.526;19.672;2023-06-22T05:28:34;13.55;;;8.80;;
61907;SDS011;47864;52.526;19.672;2023-06-22T05:30:35;12.23;;;8.40;;
61907;SDS011;47864;52.526;19.672;2023-06-22T05:32:37;10.35;;;8.02;;
61907;SDS011;47864;52.526;19.672;2023-06-22T05:34:39;14.30;;;9.38;;
61907;SDS011;47864;52.526;19.672;2023-06-22T05:36:40;10.93;;;8.45;;
61907;SDS011;47864;52.526;19.672;2023-06-22T05:38:42;18.65;;;8.75;;
61907;SDS011;47864;52.526;19.672;2023-06-22T05:40:43;12.82;;;8.38;;
61907;SDS011;47864;52.526;19.672;2023-06-22T05:42:45;12.98;;;8.43;;
61907;SDS011;47864;52.526;19.672;2023-06-22T05:44:46;12.65;;;8.18;;
61907;SDS011;47864;52.526;19.672;2023-06-22T05:46:48;16.25;;;8.63;;
61907;SDS011;47864;52.526;19.672;2023-06-22T05:48:49;9.70;;;7.22;;
61907;SDS011;47864;52.526;19.672;2023-06-22T05:50:51;10.52;;;7.82;;
61907;SDS011;47864;52.526;19.672;2023-06-22T05:52:53;11.75;;;7.90;;
61907;SDS011;47864;52.526;19.672;2023-06-22T05:54:54;9.38;;;7.95;;
61907;SDS011;47864;52.526;19.672;2023-06-22T05:56:56;11.75;;;8.23;;
61907;SDS011;47864;52.526;19.672;2023-06-22T05:58:58;11.13;;;7.78;;
61907;SDS011;47864;52.526;19.672;2023-06-22T06:00:59;15.57;;;8.60;;
61907;SDS011;47864;52.526;19.672;2023-06-22T06:03:01;12.82;;;8.52;;
61907;SDS011;47864;52.526;19.672;2023-06-22T06:05:03;10.32;;;8.38;;
61907;SDS011;47864;52.526;19.672;2023-06-22T06:07:05;14.10;;;9.05;;
61907;SDS011;47864;52.526;19.672;2023-06-22T06:09:06;14.02;;;8.80;;
61907;SDS011;47864;52.526;19.672;2023-06-22T06:11:08;14.38;;;9.55;;
61907;SDS011;47864;52.526;19.672;2023-06-22T06:13:09;17.88;;;9.93;;
61907;SDS011;47864;52.526;19.672;2023-06-22T06:15:11;13.90;;;9.35;;
61907;SDS011;47864;52.526;19.672;2023-06-22T06:17:12;13.60;;;8.90;;
61907;SDS011;47864;52.526;19.672;2023-06-22T06:19:14;12.10;;;9.38;;
61907;SDS011;47864;52.526;19.672;2023-06-22T06:21:16;10.63;;;8.38;;
61907;SDS011;47864;52.526;19.672;2023-06-22T06:23:18;12.43;;;9.05;;
61907;SDS011;47864;52.526;19.672;2023-06-22T06:25:20;13.52;;;9.30;;
61907;SDS011;47864;52.526;19.672;2023-06-22T06:27:21;14.20;;;8.65;;
61907;SDS011;47864;52.526;19.672;2023-06-22T06:29:23;12.68;;;9.40;;
61907;SDS011;47864;52.526;19.672;2023-06-22T06:31:24;16.38;;;8.93;;
61907;SDS011;47864;52.526;19.672;2023-06-22T06:33:26;14.43;;;8.10;;
61907;SDS011;47864;52.526;19.672;2023-06-22T06:35:28;10.73;;;8.00;;
61907;SDS011;47864;52.526;19.672;2023-06-22T06:37:30;12.20;;;8.88;;
61907;SDS011;47864;52.526;19.672;2023-06-22T06:39:31;11.10;;;8.00;;
61907;SDS011;47864;52.526;19.672;2023-06-22T06:41:33;14.88;;;8.73;;
61907;SDS011;47864;52.526;19.672;2023-06-22T06:43:34;11.38;;;8.38;;
61907;SDS011;47864;52.526;19.672;2023-06-22T06:45:36;15.93;;;8.45;;
61907;SDS011;47864;52.526;19.672;2023-06-22T06:47:38;12.80;;;8.32;;
61907;SDS011;47864;52.526;19.672;2023-06-22T06:49:40;13.32;;;7.75;;
61907;SDS011;47864;52.526;19.672;2023-06-22T06:51:42;12.90;;;8.23;;
61907;SDS011;47864;52.526;19.672;2023-06-22T06:53:43;14.07;;;7.13;;
61907;SDS011;47864;52.526;19.672;2023-06-22T06:55:45;16.38;;;7.72;;
61907;SDS011;47864;52.526;19.672;2023-06-22T06:57:47;13.75;;;7.05;;
61907;SDS011;47864;52.526;19.672;2023-06-22T06:59:49;10.57;;;6.93;;
61907;SDS011;47864;52.526;19.672;2023-06-22T07:01:50;15.35;;;8.13;;
61907;SDS011;47864;52.526;19.672;2023-06-22T07:03:52;11.63;;;8.23;;
61907;SDS011;47864;52.526;19.672;2023-06-22T07:05:54;9.90;;;7.15;;
61907;SDS011;47864;52.526;19.672;2023-06-22T07:07:56;9.43;;;7.15;;
61907;SDS011;47864;52.526;19.672;2023-06-22T07:09:57;13.10;;;7.78;;
61907;SDS011;47864;52.526;19.672;2023-06-22T07:11:59;16.55;;;8.00;;
61907;SDS011;47864;52.526;19.672;2023-06-22T07:14:01;11.85;;;7.22;;
61907;SDS011;47864;52.526;19.672;2023-06-22T07:16:02;10.95;;;6.85;;
61907;SDS011;47864;52.526;19.672;2023-06-22T07:18:04;11.57;;;7.50;;
61907;SDS011;47864;52.526;19.672;2023-06-22T07:20:06;9.93;;;7.38;;
61907;SDS011;47864;52.526;19.672;2023-06-22T07:22:08;11.00;;;7.07;;
61907;SDS011;47864;52.526;19.672;2023-06-22T07:24:10;12.60;;;7.10;;
61907;SDS011;47864;52.526;19.672;2023-06-22T07:26:11;9.82;;;7.35;;
61907;SDS011;47864;52.526;19.672;2023-06-22T07:28:12;11.70;;;7.10;;
61907;SDS011;47864;52.526;19.672;2023-06-22T07:30:14;9.23;;;6.30;;
61907;SDS011;47864;52.526;19.672;2023-06-22T07:32:16;8.90;;;6.50;;
61907;SDS011;47864;52.526;19.672;2023-06-22T07:34:17;9.02;;;6.53;;
61907;SDS011;47864;52.526;19.672;2023-06-22T07:36:20;12.73;;;7.00;;
61907;SDS011;47864;52.526;19.672;2023-06-22T07:38:24;9.60;;;6.45;;
61907;SDS011;47864;52.526;19.672;2023-06-22T07:40:25;10.20;;;6.10;;
61907;SDS011;47864;52.526;19.672;2023-06-22T07:42:27;10.15;;;7.15;;
61907;SDS011;47864;52.526;19.672;2023-06-22T07:44:29;10.20;;;6.30;;
61907;SDS011;47864;52.526;19.672;2023-06-22T07:46:30;10.55;;;6.25;;
61907;SDS011;47864;52.526;19.672;2023-06-22T07:48:32;10.35;;;6.50;;
61907;SDS011;47864;52.526;19.672;2023-06-22T07:50:33;8.60;;;5.95;;
61907;SDS011;47864;52.526;19.672;2023-06-22T07:52:35;11.15;;;6.38;;
61907;SDS011;47864;52.526;19.672;2023-06-22T07:54:37;10.48;;;6.55;;
61907;SDS011;47864;52.526;19.672;2023-06-22T07:56:38;12.00;;;6.55;;
61907;SDS011;47864;52.526;19.672;2023-06-22T07:58:40;11.38;;;5.65;;
61907;SDS011;47864;52.526;19.672;2023-06-22T08:00:41;10.70;;;5.55;;
61907;SDS011;47864;52.526;19.672;2023-06-22T08:02:44;7.50;;;5.78;;
61907;SDS011;47864;52.526;19.672;2023-06-22T08:04:47;7.97;;;5.47;;
61907;SDS011;47864;52.526;19.672;2023-06-22T08:06:49;10.35;;;6.18;;
61907;SDS011;47864;52.526;19.672;2023-06-22T08:08:50;9.63;;;5.72;;
61907;SDS011;47864;52.526;19.672;2023-06-22T08:10:52;8.10;;;5.65;;
61907;SDS011;47864;52.526;19.672;2023-06-22T08:12:53;10.45;;;5.60;;
61907;SDS011;47864;52.526;19.672;2023-06-22T08:14:55;9.27;;;5.47;;
61907;SDS011;47864;52.526;19.672;2023-06-22T08:16:56;7.50;;;5.38;;
61907;SDS011;47864;52.526;19.672;2023-06-22T08:18:58;8.60;;;5.63;;
61907;SDS011;47864;52.526;19.672;2023-06-22T08:21:00;7.68;;;5.60;;
61907;SDS011;47864;52.526;19.672;2023-06-22T08:23:04;9.93;;;5.88;;
61907;SDS011;47864;52.526;19.672;2023-06-22T08:25:07;8.57;;;5.13;;
61907;SDS011;47864;52.526;19.672;2023-06-22T08:27:09;11.15;;;5.55;;
61907;SDS011;47864;52.526;19.672;2023-06-22T08:29:11;7.13;;;5.97;;
61907;SDS011;47864;52.526;19.672;2023-06-22T08:31:13;7.57;;;5.25;;
61907;SDS011;47864;52.526;19.672;2023-06-22T08:33:14;9.38;;;6.20;;
61907;SDS011;47864;52.526;19.672;2023-06-22T08:35:28;11.27;;;5.78;;
61907;SDS011;47864;52.526;19.672;2023-06-22T08:37:30;10.13;;;5.60;;
61907;SDS011;47864;52.526;19.672;2023-06-22T08:39:32;9.02;;;5.55;;
61907;SDS011;47864;52.526;19.672;2023-06-22T08:41:36;11.18;;;5.53;;
61907;SDS011;47864;52.526;19.672;2023-06-22T08:43:38;11.18;;;5.93;;
61907;SDS011;47864;52.526;19.672;2023-06-22T08:45:39;9.77;;;5.05;;
61907;SDS011;47864;52.526;19.672;2023-06-22T08:47:42;11.47;;;5.83;;
61907;SDS011;47864;52.526;19.672;2023-06-22T08:49:44;9.27;;;5.30;;
61907;SDS011;47864;52.526;19.672;2023-06-22T08:51:45;8.40;;;5.55;;
61907;SDS011;47864;52.526;19.672;2023-06-22T08:53:48;7.07;;;5.20;;
61907;SDS011;47864;52.526;19.672;2023-06-22T08:55:50;9.93;;;6.00;;
61907;SDS011;47864;52.526;19.672;2023-06-22T08:57:52;13.18;;;6.13;;
61907;SDS011;47864;52.526;19.672;2023-06-22T08:59:53;11.40;;;6.07;;
61907;SDS011;47864;52.526;19.672;2023-06-22T09:01:55;9.15;;;5.35;;
61907;SDS011;47864;52.526;19.672;2023-06-22T09:03:58;9.23;;;5.60;;
61907;SDS011;47864;52.526;19.672;2023-06-22T09:06:00;11.18;;;6.03;;
61907;SDS011;47864;52.526;19.672;2023-06-22T09:08:02;9.23;;;5.65;;
61907;SDS011;47864;52.526;19.672;2023-06-22T09:10:04;11.65;;;6.03;;
61907;SDS011;47864;52.526;19.672;2023-06-22T09:12:06;13.43;;;6.00;;
61907;SDS011;47864;52.526;19.672;2023-06-22T09:14:09;8.32;;;5.63;;
61907;SDS011;47864;52.526;19.672;2023-06-22T09:16:12;8.27;;;5.75;;
61907;SDS011;47864;52.526;19.672;2023-06-22T09:18:13;9.95;;;5.70;;
61907;SDS011;47864;52.526;19.672;2023-06-22T09:20:16;8.32;;;5.47;;
61907;SDS011;47864;52.526;19.672;2023-06-22T09:22:17;12.05;;;6.10;;
61907;SDS011;47864;52.526;19.672;2023-06-22T09:24:19;10.43;;;5.93;;
61907;SDS011;47864;52.526;19.672;2023-06-22T09:26:21;12.82;;;5.60;;
61907;SDS011;47864;52.526;19.672;2023-06-22T09:28:22;11.05;;;5.68;;
61907;SDS011;47864;52.526;19.672;2023-06-22T09:30:24;36.38;;;7.13;;
61907;SDS011;47864;52.526;19.672;2023-06-22T09:32:25;8.80;;;5.60;;
61907;SDS011;47864;52.526;19.672;2023-06-22T09:34:27;12.15;;;6.55;;
61907;SDS011;47864;52.526;19.672;2023-06-22T09:36:28;9.32;;;5.80;;
61907;SDS011;47864;52.526;19.672;2023-06-22T09:38:30;8.48;;;5.90;;
61907;SDS011;47864;52.526;19.672;2023-06-22T09:40:32;9.20;;;6.43;;
61907;SDS011;47864;52.526;19.672;2023-06-22T09:42:33;9.55;;;5.93;;
61907;SDS011;47864;52.526;19.672;2023-06-22T09:44:35;9.10;;;5.97;;
61907;SDS011;47864;52.526;19.672;2023-06-22T09:46:36;10.18;;;6.20;;
61907;SDS011;47864;52.526;19.672;2023-06-22T09:48:38;10.20;;;5.75;;
61907;SDS011;47864;52.526;19.672;2023-06-22T09:50:41;10.85;;;5.20;;
61907;SDS011;47864;52.526;19.672;2023-06-22T09:52:42;7.38;;;5.43;;
61907;SDS011;47864;52.526;19.672;2023-06-22T09:54:48;10.75;;;5.78;;
61907;SDS011;47864;52.526;19.672;2023-06-22T09:56:50;8.43;;;5.68;;
61907;SDS011;47864;52.526;19.672;2023-06-22T09:58:52;10.82;;;5.88;;
61907;SDS011;47864;52.526;19.672;2023-06-22T10:00:54;9.25;;;5.82;;
61907;SDS011;47864;52.526;19.672;2023-06-22T10:02:57;10.93;;;5.97;;
61907;SDS011;47864;52.526;19.672;2023-06-22T10:05:01;12.30;;;5.65;;
61907;SDS011;47864;52.526;19.672;2023-06-22T10:07:04;11.82;;;5.13;;
61907;SDS011;47864;52.526;19.672;2023-06-22T10:09:06;7.03;;;4.75;;
61907;SDS011;47864;52.526;19.672;2023-06-22T10:11:09;7.07;;;4.40;;
61907;SDS011;47864;52.526;19.672;2023-06-22T10:13:10;7.82;;;5.40;;
61907;SDS011;47864;52.526;19.672;2023-06-22T10:15:12;6.88;;;4.65;;
61907;SDS011;47864;52.526;19.672;2023-06-22T10:17:14;10.00;;;5.38;;
61907;SDS011;47864;52.526;19.672;2023-06-22T10:19:16;7.25;;;5.07;;
61907;SDS011;47864;52.526;19.672;2023-06-22T10:21:18;8.07;;;4.85;;
61907;SDS011;47864;52.526;19.672;2023-06-22T10:23:19;7.88;;;4.90;;
61907;SDS011;47864;52.526;19.672;2023-06-22T10:25:21;6.88;;;4.40;;
61907;SDS011;47864;52.526;19.672;2023-06-22T10:27:23;8.30;;;5.80;;
61907;SDS011;47864;52.526;19.672;2023-06-22T10:29:25;8.25;;;4.88;;
61907;SDS011;47864;52.526;19.672;2023-06-22T10:31:27;7.18;;;5.30;;
61907;SDS011;47864;52.526;19.672;2023-06-22T10:33:29;10.90;;;4.60;;
61907;SDS011;47864;52.526;19.672;2023-06-22T10:35:30;7.60;;;4.60;;
61907;SDS011;47864;52.526;19.672;2023-06-22T10:37:32;9.52;;;5.18;;
61907;SDS011;47864;52.526;19.672;2023-06-22T10:39:34;8.50;;;4.97;;
61907;SDS011;47864;52.526;19.672;2023-06-22T10:41:36;9.48;;;5.28;;
61907;SDS011;47864;52.526;19.672;2023-06-22T10:43:37;7.90;;;4.55;;
61907;SDS011;47864;52.526;19.672;2023-06-22T10:45:39;6.32;;;4.60;;
61907;SDS011;47864;52.526;19.672;2023-06-22T10:47:40;9.45;;;4.70;;
61907;SDS011;47864;52.526;19.672;2023-06-22T10:49:42;7.78;;;4.47;;
61907;SDS011;47864;52.526;19.672;2023-06-22T10:51:44;7.07;;;4.50;;
61907;SDS011;47864;52.526;19.672;2023-06-22T10:53:45;7.97;;;4.60;;
61907;SDS011;47864;52.526;19.672;2023-06-22T10:55:47;9.48;;;4.70;;
61907;SDS011;47864;52.526;19.672;2023-06-22T10:57:57;8.05;;;4.95;;
61907;SDS011;47864;52.526;19.672;2023-06-22T10:59:58;7.85;;;4.70;;
61907;SDS011;47864;52.526;19.672;2023-06-22T11:02:00;5.57;;;4.22;;
61907;SDS011;47864;52.526;19.672;2023-06-22T11:04:02;8.02;;;4.97;;
61907;SDS011;47864;52.526;19.672;2023-06-22T11:06:05;9.90;;;5.20;;
61907;SDS011;47864;52.526;19.672;2023-06-22T11:08:06;7.00;;;4.97;;
61907;SDS011;47864;52.526;19.672;2023-06-22T11:10:08;10.73;;;4.55;;
61907;SDS011;47864;52.526;19.672;2023-06-22T11:12:10;6.75;;;4.60;;
61907;SDS011;47864;52.526;19.672;2023-06-22T11:14:11;8.68;;;4.65;;
61907;SDS011;47864;52.526;19.672;2023-06-22T11:16:13;6.88;;;4.75;;
61907;SDS011;47864;52.526;19.672;2023-06-22T11:18:15;7.32;;;4.80;;
61907;SDS011;47864;52.526;19.672;2023-06-22T11:20:16;5.90;;;4.47;;
61907;SDS011;47864;52.526;19.672;2023-06-22T11:22:18;7.07;;;4.10;;
61907;SDS011;47864;52.526;19.672;2023-06-22T11:24:19;6.32;;;4.45;;
61907;SDS011;47864;52.526;19.672;2023-06-22T11:26:21;6.28;;;4.32;;
61907;SDS011;47864;52.526;19.672;2023-06-22T11:28:22;8.00;;;4.38;;
61907;SDS011;47864;52.526;19.672;2023-06-22T11:30:24;7.03;;;3.88;;
61907;SDS011;47864;52.526;19.672;2023-06-22T11:32:25;6.82;;;4.70;;
61907;SDS011;47864;52.526;19.672;2023-06-22T11:34:28;7.50;;;4.70;;
61907;SDS011;47864;52.526;19.672;2023-06-22T11:36:29;7.05;;;4.32;;
61907;SDS011;47864;52.526;19.672;2023-06-22T11:38:31;6.95;;;4.20;;
61907;SDS011;47864;52.526;19.672;2023-06-22T11:40:32;8.27;;;4.43;;
61907;SDS011;47864;52.526;19.672;2023-06-22T11:42:34;5.53;;;4.05;;
61907;SDS011;47864;52.526;19.672;2023-06-22T11:44:36;6.13;;;4.50;;
61907;SDS011;47864;52.526;19.672;2023-06-22T11:46:37;7.07;;;4.40;;
61907;SDS011;47864;52.526;19.672;2023-06-22T11:48:39;9.25;;;4.18;;
61907;SDS011;47864;52.526;19.672;2023-06-22T11:50:40;6.43;;;4.40;;
61907;SDS011;47864;52.526;19.672;2023-06-22T11:52:42;6.20;;;4.22;;
61907;SDS011;47864;52.526;19.672;2023-06-22T11:54:44;6.15;;;3.97;;
61907;SDS011;47864;52.526;19.672;2023-06-22T11:56:45;6.85;;;4.05;;
61907;SDS011;47864;52.526;19.672;2023-06-22T11:58:47;7.78;;;3.85;;
61907;SDS011;47864;52.526;19.672;2023-06-22T12:00:48;6.90;;;3.78;;
61907;SDS011;47864;52.526;19.672;2023-06-22T12:02:52;6.60;;;3.60;;
61907;SDS011;47864;52.526;19.672;2023-06-22T12:04:54;7.55;;;3.42;;
61907;SDS011;47864;52.526;19.672;2023-06-22T12:06:55;6.88;;;3.50;;
61907;SDS011;47864;52.526;19.672;2023-06-22T12:08:57;4.75;;;3.20;;
61907;SDS011;47864;52.526;19.672;2023-06-22T12:10:59;5.68;;;3.55;;